sensor_id;sensor_type;location;lat;lon;timestamp;pressure;altitude;pressure_sealevel;temperature;humidity
41334;BME280;27078;46.428;6.256;2023-12-20T00:00:56;96917.00;;;3.88;68.57
41334;BME280;27078;46.428;6.256;2023-12-20T00:03:22;96930.22;;;3.91;67.64
41334;BME280;27078;46.428;6.256;2023-12-20T00:05:47;96932.56;;;3.99;69.83
41334;BME280;27078;46.428;6.256;2023-12-20T00:08:13;96917.81;;;4.05;67.95
41334;BME280;27078;46.428;6.256;2023-12-20T00:10:38;96911.84;;;3.91;67.40
41334;BME280;27078;46.428;6.256;2023-12-20T00:13:04;96914.94;;;3.95;67.71
41334;BME280;27078;46.428;6.256;2023-12-20T00:15:29;96904.69;;;3.90;67.70
41334;BME280;27078;46.428;6.256;2023-12-20T00:17:54;96898.84;;;3.82;69.43
41334;BME280;27078;46.428;6.256;2023-12-20T00:20:20;96907.72;;;3.89;69.38
41334;BME280;27078;46.428;6.256;2023-12-20T00:22:45;96906.28;;;3.86;69.02
41334;BME280;27078;46.428;6.256;2023-12-20T00:25:11;96913.06;;;3.78;67.83
41334;BME280;27078;46.428;6.256;2023-12-20T00:27:36;96908.13;;;3.81;68.85
41334;BME280;27078;46.428;6.256;2023-12-20T00:30:02;96920.84;;;3.87;69.21
41334;BME280;27078;46.428;6.256;2023-12-20T00:32:27;96916.19;;;3.87;68.56
41334;BME280;27078;46.428;6.256;2023-12-20T00:34:52;96910.31;;;3.78;68.62
41334;BME280;27078;46.428;6.256;2023-12-20T00:37:18;96924.59;;;3.81;68.41
41334;BME280;27078;46.428;6.256;2023-12-20T00:39:43;96926.94;;;3.89;68.94
41334;BME280;27078;46.428;6.256;2023-12-20T00:42:09;96914.84;;;3.90;68.66
41334;BME280;27078;46.428;6.256;2023-12-20T00:44:34;96911.66;;;3.98;69.19
41334;BME280;27078;46.428;6.256;2023-12-20T00:46:59;96907.75;;;4.16;70.35
41334;BME280;27078;46.428;6.256;2023-12-20T00:49:25;96902.00;;;4.17;69.06
41334;BME280;27078;46.428;6.256;2023-12-20T00:51:50;96907.75;;;4.16;67.90
41334;BME280;27078;46.428;6.256;2023-12-20T00:54:17;96896.47;;;4.12;67.47
41334;BME280;27078;46.428;6.256;2023-12-20T00:56:42;96912.94;;;4.12;70.16
41334;BME280;27078;46.428;6.256;2023-12-20T00:59:08;96917.13;;;4.20;68.73
41334;BME280;27078;46.428;6.256;2023-12-20T01:01:33;96922.63;;;4.20;68.42
41334;BME280;27078;46.428;6.256;2023-12-20T01:03:58;96924.56;;;4.19;67.87
41334;BME280;27078;46.428;6.256;2023-12-20T01:06:24;96920.72;;;4.20;68.68
41334;BME280;27078;46.428;6.256;2023-12-20T01:08:49;96919.69;;;4.26;69.23
41334;BME280;27078;46.428;6.256;2023-12-20T01:11:15;96922.53;;;4.37;68.66
41334;BME280;27078;46.428;6.256;2023-12-20T01:13:40;96924.88;;;4.50;68.36
41334;BME280;27078;46.428;6.256;2023-12-20T01:16:06;96913.94;;;4.55;67.14
41334;BME280;27078;46.428;6.256;2023-12-20T01:18:31;96924.47;;;4.63;67.47
41334;BME280;27078;46.428;6.256;2023-12-20T01:21:01;96916.16;;;4.58;66.90
41334;BME280;27078;46.428;6.256;2023-12-20T01:23:27;96932.09;;;4.56;67.06
41334;BME280;27078;46.428;6.256;2023-12-20T01:25:52;96930.94;;;4.52;67.25
41334;BME280;27078;46.428;6.256;2023-12-20T01:28:19;96925.44;;;4.52;67.98
41334;BME280;27078;46.428;6.256;2023-12-20T01:30:44;96933.13;;;4.50;67.96
41334;BME280;27078;46.428;6.256;2023-12-20T01:33:09;96935.06;;;4.49;67.94
41334;BME280;27078;46.428;6.256;2023-12-20T01:35:35;96938.06;;;4.48;67.69
41334;BME280;27078;46.428;6.256;2023-12-20T01:38:00;96934.25;;;4.49;67.35
41334;BME280;27078;46.428;6.256;2023-12-20T01:40:25;96932.56;;;4.48;67.07
41334;BME280;27078;46.428;6.256;2023-12-20T01:43:01;96938.31;;;4.46;67.45
41334;BME280;27078;46.428;6.256;2023-12-20T01:45:26;96922.16;;;4.50;67.79
41334;BME280;27078;46.428;6.256;2023-12-20T01:47:52;96936.81;;;4.61;69.21
41334;BME280;27078;46.428;6.256;2023-12-20T01:50:18;96927.47;;;4.62;67.95
41334;BME280;27078;46.428;6.256;2023-12-20T01:52:44;96930.06;;;4.73;69.94
41334;BME280;27078;46.428;6.256;2023-12-20T01:55:10;96926.69;;;4.93;68.33
41334;BME280;27078;46.428;6.256;2023-12-20T01:57:41;96921.97;;;5.21;69.41
41334;BME280;27078;46.428;6.256;2023-12-20T02:00:08;96923.44;;;5.34;67.86
41334;BME280;27078;46.428;6.256;2023-12-20T02:02:36;96933.28;;;5.25;66.27
41334;BME280;27078;46.428;6.256;2023-12-20T02:05:02;96924.09;;;5.14;66.83
41334;BME280;27078;46.428;6.256;2023-12-20T02:07:29;96928.88;;;5.24;69.56
41334;BME280;27078;46.428;6.256;2023-12-20T02:09:56;96930.75;;;5.18;66.66
41334;BME280;27078;46.428;6.256;2023-12-20T02:12:21;96942.25;;;5.10;67.61
41334;BME280;27078;46.428;6.256;2023-12-20T02:14:47;96931.78;;;5.12;67.55
41334;BME280;27078;46.428;6.256;2023-12-20T02:17:12;96938.19;;;5.22;70.84
41334;BME280;27078;46.428;6.256;2023-12-20T02:19:37;96914.53;;;5.21;67.70
41334;BME280;27078;46.428;6.256;2023-12-20T02:22:10;96918.94;;;5.22;68.19
41334;BME280;27078;46.428;6.256;2023-12-20T02:24:35;96922.91;;;5.37;68.06
41334;BME280;27078;46.428;6.256;2023-12-20T02:27:01;96919.28;;;5.31;66.67
41334;BME280;27078;46.428;6.256;2023-12-20T02:29:26;96926.88;;;5.19;65.34
41334;BME280;27078;46.428;6.256;2023-12-20T02:31:52;96916.41;;;5.16;66.21
41334;BME280;27078;46.428;6.256;2023-12-20T02:34:17;96928.44;;;5.05;66.86
41334;BME280;27078;46.428;6.256;2023-12-20T02:36:42;96920.66;;;4.96;66.77
41334;BME280;27078;46.428;6.256;2023-12-20T02:39:08;96915.25;;;5.07;69.46
41334;BME280;27078;46.428;6.256;2023-12-20T02:41:33;96909.91;;;5.32;70.12
41334;BME280;27078;46.428;6.256;2023-12-20T02:43:58;96918.19;;;5.32;68.68
41334;BME280;27078;46.428;6.256;2023-12-20T02:46:24;96918.09;;;5.22;69.13
41334;BME280;27078;46.428;6.256;2023-12-20T02:48:49;96912.88;;;5.20;69.55
41334;BME280;27078;46.428;6.256;2023-12-20T02:51:15;96911.41;;;5.13;69.89
41334;BME280;27078;46.428;6.256;2023-12-20T02:53:40;96903.38;;;5.01;69.66
41334;BME280;27078;46.428;6.256;2023-12-20T02:56:06;96901.94;;;4.93;70.07
41334;BME280;27078;46.428;6.256;2023-12-20T02:58:31;96906.06;;;4.96;70.82
41334;BME280;27078;46.428;6.256;2023-12-20T03:00:56;96902.75;;;4.94;70.99
41334;BME280;27078;46.428;6.256;2023-12-20T03:03:22;96898.91;;;4.95;71.39
41334;BME280;27078;46.428;6.256;2023-12-20T03:05:47;96910.72;;;4.95;70.86
41334;BME280;27078;46.428;6.256;2023-12-20T03:08:12;96920.81;;;4.85;70.96
41334;BME280;27078;46.428;6.256;2023-12-20T03:10:38;96906.19;;;4.79;70.99
41334;BME280;27078;46.428;6.256;2023-12-20T03:13:03;96912.41;;;4.96;72.78
41334;BME280;27078;46.428;6.256;2023-12-20T03:15:28;96909.78;;;5.12;72.27
41334;BME280;27078;46.428;6.256;2023-12-20T03:17:54;96912.53;;;5.12;70.10
41334;BME280;27078;46.428;6.256;2023-12-20T03:20:19;96918.00;;;5.07;69.97
41334;BME280;27078;46.428;6.256;2023-12-20T03:22:44;96918.47;;;4.98;69.77
41334;BME280;27078;46.428;6.256;2023-12-20T03:25:10;96913.75;;;4.94;69.88
41334;BME280;27078;46.428;6.256;2023-12-20T03:27:37;96920.66;;;4.96;71.16
41334;BME280;27078;46.428;6.256;2023-12-20T03:30:04;96909.38;;;4.98;71.42
41334;BME280;27078;46.428;6.256;2023-12-20T03:32:29;96920.44;;;5.03;71.96
41334;BME280;27078;46.428;6.256;2023-12-20T03:34:57;96908.94;;;5.11;71.72
41334;BME280;27078;46.428;6.256;2023-12-20T03:37:23;96910.94;;;5.21;71.32
41334;BME280;27078;46.428;6.256;2023-12-20T03:39:48;96900.78;;;5.21;71.43
41334;BME280;27078;46.428;6.256;2023-12-20T03:42:13;96907.91;;;5.22;71.21
41334;BME280;27078;46.428;6.256;2023-12-20T03:44:39;96907.69;;;5.29;70.51
41334;BME280;27078;46.428;6.256;2023-12-20T03:47:05;96906.09;;;5.33;70.21
41334;BME280;27078;46.428;6.256;2023-12-20T03:49:31;96910.78;;;5.38;71.09
41334;BME280;27078;46.428;6.256;2023-12-20T03:51:56;96892.34;;;5.38;70.69
41334;BME280;27078;46.428;6.256;2023-12-20T03:54:21;96890.75;;;5.48;71.01
41334;BME280;27078;46.428;6.256;2023-12-20T03:56:47;96896.00;;;5.49;71.22
41334;BME280;27078;46.428;6.256;2023-12-20T03:59:12;96885.56;;;5.56;70.52
41334;BME280;27078;46.428;6.256;2023-12-20T04:01:37;96883.09;;;5.60;70.46
41334;BME280;27078;46.428;6.256;2023-12-20T04:04:03;96879.78;;;5.53;70.00
41334;BME280;27078;46.428;6.256;2023-12-20T04:06:28;96883.69;;;5.62;71.36
41334;BME280;27078;46.428;6.256;2023-12-20T04:08:54;96881.22;;;5.60;70.62
41334;BME280;27078;46.428;6.256;2023-12-20T04:11:19;96884.75;;;5.56;70.54
41334;BME280;27078;46.428;6.256;2023-12-20T04:13:44;96888.78;;;5.43;70.81
41334;BME280;27078;46.428;6.256;2023-12-20T04:16:10;96885.16;;;5.32;70.38
41334;BME280;27078;46.428;6.256;2023-12-20T04:18:35;96894.16;;;5.22;70.71
41334;BME280;27078;46.428;6.256;2023-12-20T04:21:01;96902.63;;;5.16;71.96
41334;BME280;27078;46.428;6.256;2023-12-20T04:23:26;96906.19;;;5.11;71.44
41334;BME280;27078;46.428;6.256;2023-12-20T04:25:54;96898.69;;;5.02;72.14
41334;BME280;27078;46.428;6.256;2023-12-20T04:28:20;96893.41;;;4.95;72.77
41334;BME280;27078;46.428;6.256;2023-12-20T04:30:45;96895.06;;;4.96;73.15
41334;BME280;27078;46.428;6.256;2023-12-20T04:33:10;96913.47;;;4.95;72.90
41334;BME280;27078;46.428;6.256;2023-12-20T04:35:48;96917.34;;;4.94;72.80
41334;BME280;27078;46.428;6.256;2023-12-20T04:38:24;96916.75;;;4.92;73.88
41334;BME280;27078;46.428;6.256;2023-12-20T04:40:51;96913.31;;;5.07;74.20
41334;BME280;27078;46.428;6.256;2023-12-20T04:43:19;96909.53;;;5.18;73.40
41334;BME280;27078;46.428;6.256;2023-12-20T04:45:45;96905.75;;;5.25;73.37
41334;BME280;27078;46.428;6.256;2023-12-20T04:48:18;96905.78;;;5.30;73.19
41334;BME280;27078;46.428;6.256;2023-12-20T04:50:44;96911.25;;;5.25;73.34
41334;BME280;27078;46.428;6.256;2023-12-20T04:53:10;96910.66;;;5.17;73.61
41334;BME280;27078;46.428;6.256;2023-12-20T04:55:36;96909.53;;;5.18;73.56
41334;BME280;27078;46.428;6.256;2023-12-20T04:58:10;96898.47;;;5.08;73.72
41334;BME280;27078;46.428;6.256;2023-12-20T05:00:37;96900.66;;;5.06;75.02
41334;BME280;27078;46.428;6.256;2023-12-20T05:03:04;96894.66;;;5.14;74.33
41334;BME280;27078;46.428;6.256;2023-12-20T05:05:33;96898.53;;;5.18;73.60
41334;BME280;27078;46.428;6.256;2023-12-20T05:07:59;96905.63;;;5.09;73.21
41334;BME280;27078;46.428;6.256;2023-12-20T05:10:25;96903.88;;;4.98;73.55
41334;BME280;27078;46.428;6.256;2023-12-20T05:12:52;96919.19;;;4.89;74.86
41334;BME280;27078;46.428;6.256;2023-12-20T05:15:19;96906.47;;;4.78;75.27
41334;BME280;27078;46.428;6.256;2023-12-20T05:17:45;96905.94;;;4.81;75.84
41334;BME280;27078;46.428;6.256;2023-12-20T05:20:11;96903.44;;;4.79;76.13
41334;BME280;27078;46.428;6.256;2023-12-20T05:22:38;96909.72;;;4.74;75.63
41334;BME280;27078;46.428;6.256;2023-12-20T05:25:04;96919.84;;;4.69;75.40
41334;BME280;27078;46.428;6.256;2023-12-20T05:27:31;96925.31;;;4.64;76.04
41334;BME280;27078;46.428;6.256;2023-12-20T05:29:57;96940.97;;;4.63;75.86
41334;BME280;27078;46.428;6.256;2023-12-20T05:32:23;96949.47;;;4.62;75.90
41334;BME280;27078;46.428;6.256;2023-12-20T05:34:49;96931.00;;;4.57;76.22
41334;BME280;27078;46.428;6.256;2023-12-20T05:37:14;96937.94;;;4.65;76.27
41334;BME280;27078;46.428;6.256;2023-12-20T05:39:39;96937.13;;;4.64;76.04
41334;BME280;27078;46.428;6.256;2023-12-20T05:42:05;96945.97;;;4.66;75.68
41334;BME280;27078;46.428;6.256;2023-12-20T05:44:30;96947.31;;;4.64;75.66
41334;BME280;27078;46.428;6.256;2023-12-20T05:46:55;96945.66;;;4.63;75.49
41334;BME280;27078;46.428;6.256;2023-12-20T05:49:21;96946.16;;;4.60;75.85
41334;BME280;27078;46.428;6.256;2023-12-20T05:51:47;96948.84;;;4.55;76.16
41334;BME280;27078;46.428;6.256;2023-12-20T05:54:12;96949.34;;;4.52;76.21
41334;BME280;27078;46.428;6.256;2023-12-20T05:56:38;96945.22;;;4.49;76.31
41334;BME280;27078;46.428;6.256;2023-12-20T05:59:03;96939.19;;;4.52;76.13
41334;BME280;27078;46.428;6.256;2023-12-20T06:01:29;96925.34;;;4.42;77.12
41334;BME280;27078;46.428;6.256;2023-12-20T06:03:54;96932.00;;;4.46;77.34
41334;BME280;27078;46.428;6.256;2023-12-20T06:06:19;96939.84;;;4.59;76.66
41334;BME280;27078;46.428;6.256;2023-12-20T06:08:45;96954.13;;;4.61;76.07
41334;BME280;27078;46.428;6.256;2023-12-20T06:11:10;96959.13;;;4.64;76.26
41334;BME280;27078;46.428;6.256;2023-12-20T06:13:36;96955.28;;;4.65;75.31
41334;BME280;27078;46.428;6.256;2023-12-20T06:16:01;96942.63;;;4.64;76.10
41334;BME280;27078;46.428;6.256;2023-12-20T06:18:26;96952.50;;;4.60;75.75
41334;BME280;27078;46.428;6.256;2023-12-20T06:20:52;96953.00;;;4.57;76.14
41334;BME280;27078;46.428;6.256;2023-12-20T06:23:17;96956.28;;;4.54;76.11
41334;BME280;27078;46.428;6.256;2023-12-20T06:25:44;96957.06;;;4.49;75.99
41334;BME280;27078;46.428;6.256;2023-12-20T06:28:09;96956.44;;;4.42;76.26
41334;BME280;27078;46.428;6.256;2023-12-20T06:30:35;96962.16;;;4.41;76.85
41334;BME280;27078;46.428;6.256;2023-12-20T06:33:01;96974.63;;;4.48;76.08
41334;BME280;27078;46.428;6.256;2023-12-20T06:35:26;96963.31;;;4.45;76.53
41334;BME280;27078;46.428;6.256;2023-12-20T06:37:51;96974.63;;;4.48;76.13
41334;BME280;27078;46.428;6.256;2023-12-20T06:40:17;96969.78;;;4.56;76.22
41334;BME280;27078;46.428;6.256;2023-12-20T06:42:43;96963.72;;;4.59;75.49
41334;BME280;27078;46.428;6.256;2023-12-20T06:45:09;96977.78;;;4.62;75.63
41334;BME280;27078;46.428;6.256;2023-12-20T06:47:35;96987.34;;;4.55;76.22
41334;BME280;27078;46.428;6.256;2023-12-20T06:50:00;96977.69;;;4.52;76.63
41334;BME280;27078;46.428;6.256;2023-12-20T06:52:26;96979.56;;;4.46;76.64
41334;BME280;27078;46.428;6.256;2023-12-20T06:54:51;96979.25;;;4.43;75.84
41334;BME280;27078;46.428;6.256;2023-12-20T06:57:17;96979.59;;;4.52;76.34
41334;BME280;27078;46.428;6.256;2023-12-20T06:59:42;96978.03;;;4.56;76.06
41334;BME280;27078;46.428;6.256;2023-12-20T07:02:08;96976.66;;;4.58;75.71
41334;BME280;27078;46.428;6.256;2023-12-20T07:04:35;96974.19;;;4.57;76.49
41334;BME280;27078;46.428;6.256;2023-12-20T07:07:04;96981.84;;;4.55;76.32
41334;BME280;27078;46.428;6.256;2023-12-20T07:09:29;96985.91;;;4.52;76.54
41334;BME280;27078;46.428;6.256;2023-12-20T07:11:54;96991.41;;;4.52;76.62
41334;BME280;27078;46.428;6.256;2023-12-20T07:14:20;96993.63;;;4.50;76.38
41334;BME280;27078;46.428;6.256;2023-12-20T07:16:45;96990.56;;;4.46;77.22
41334;BME280;27078;46.428;6.256;2023-12-20T07:19:10;96998.22;;;4.44;77.06
41334;BME280;27078;46.428;6.256;2023-12-20T07:21:35;97002.28;;;4.42;78.30
41334;BME280;27078;46.428;6.256;2023-12-20T07:24:01;96994.59;;;4.39;77.05
41334;BME280;27078;46.428;6.256;2023-12-20T07:26:26;96991.66;;;4.23;77.81
41334;BME280;27078;46.428;6.256;2023-12-20T07:28:51;96999.81;;;4.18;77.91
41334;BME280;27078;46.428;6.256;2023-12-20T07:31:17;97002.03;;;4.21;77.57
41334;BME280;27078;46.428;6.256;2023-12-20T07:33:42;97016.06;;;4.20;77.66
41334;BME280;27078;46.428;6.256;2023-12-20T07:36:08;97018.28;;;4.23;79.10
41334;BME280;27078;46.428;6.256;2023-12-20T07:38:34;97026.22;;;4.19;77.70
41334;BME280;27078;46.428;6.256;2023-12-20T07:40:59;97020.72;;;4.19;77.99
41334;BME280;27078;46.428;6.256;2023-12-20T07:43:25;97025.63;;;4.17;77.65
41334;BME280;27078;46.428;6.256;2023-12-20T07:45:50;97041.28;;;4.17;77.72
41334;BME280;27078;46.428;6.256;2023-12-20T07:48:15;97028.25;;;4.07;78.20
41334;BME280;27078;46.428;6.256;2023-12-20T07:50:41;97036.47;;;4.07;77.95
41334;BME280;27078;46.428;6.256;2023-12-20T07:53:07;97036.25;;;4.09;78.03
41334;BME280;27078;46.428;6.256;2023-12-20T07:55:32;97036.97;;;4.04;78.43
41334;BME280;27078;46.428;6.256;2023-12-20T07:57:59;97047.16;;;4.03;77.96
41334;BME280;27078;46.428;6.256;2023-12-20T08:00:24;97052.13;;;4.07;78.32
41334;BME280;27078;46.428;6.256;2023-12-20T08:02:50;97038.81;;;4.15;77.82
41334;BME280;27078;46.428;6.256;2023-12-20T08:05:15;97036.88;;;4.16;77.20
41334;BME280;27078;46.428;6.256;2023-12-20T08:07:40;97032.13;;;4.11;77.15
41334;BME280;27078;46.428;6.256;2023-12-20T08:10:06;97038.66;;;4.05;77.06
41334;BME280;27078;46.428;6.256;2023-12-20T08:12:32;97039.84;;;3.92;77.67
41334;BME280;27078;46.428;6.256;2023-12-20T08:14:58;97048.50;;;3.84;77.64
41334;BME280;27078;46.428;6.256;2023-12-20T08:17:24;97049.25;;;3.79;77.95
41334;BME280;27078;46.428;6.256;2023-12-20T08:19:49;97060.50;;;3.78;78.09
41334;BME280;27078;46.428;6.256;2023-12-20T08:22:14;97057.19;;;3.59;78.56
41334;BME280;27078;46.428;6.256;2023-12-20T08:24:40;97055.69;;;3.68;79.54
41334;BME280;27078;46.428;6.256;2023-12-20T08:27:05;97055.34;;;3.82;77.52
41334;BME280;27078;46.428;6.256;2023-12-20T08:29:31;97057.66;;;3.90;78.33
41334;BME280;27078;46.428;6.256;2023-12-20T08:31:56;97052.75;;;3.92;77.74
41334;BME280;27078;46.428;6.256;2023-12-20T08:34:22;97058.16;;;3.87;78.07
41334;BME280;27078;46.428;6.256;2023-12-20T08:36:50;97064.97;;;3.84;77.78
41334;BME280;27078;46.428;6.256;2023-12-20T08:39:15;97071.28;;;3.85;77.26
41334;BME280;27078;46.428;6.256;2023-12-20T08:41:41;97061.41;;;3.84;77.39
41334;BME280;27078;46.428;6.256;2023-12-20T08:44:06;97063.97;;;3.90;77.99
41334;BME280;27078;46.428;6.256;2023-12-20T08:46:31;97061.66;;;3.99;77.71
41334;BME280;27078;46.428;6.256;2023-12-20T08:48:57;97062.63;;;4.10;78.71
41334;BME280;27078;46.428;6.256;2023-12-20T08:51:22;97071.00;;;4.20;77.78
41334;BME280;27078;46.428;6.256;2023-12-20T08:53:50;97071.72;;;4.32;78.04
41334;BME280;27078;46.428;6.256;2023-12-20T08:56:15;97071.59;;;4.44;77.54
41334;BME280;27078;46.428;6.256;2023-12-20T08:58:41;97072.63;;;4.60;78.22
41334;BME280;27078;46.428;6.256;2023-12-20T09:01:07;97074.41;;;4.71;77.35
41334;BME280;27078;46.428;6.256;2023-12-20T09:03:32;97080.03;;;4.81;76.94
41334;BME280;27078;46.428;6.256;2023-12-20T09:05:58;97074.97;;;4.95;76.89
41334;BME280;27078;46.428;6.256;2023-12-20T09:08:23;97077.59;;;5.07;76.58
41334;BME280;27078;46.428;6.256;2023-12-20T09:10:49;97071.38;;;5.16;75.88
41334;BME280;27078;46.428;6.256;2023-12-20T09:13:14;97073.63;;;5.25;75.72
41334;BME280;27078;46.428;6.256;2023-12-20T09:15:39;97069.88;;;5.36;74.97
41334;BME280;27078;46.428;6.256;2023-12-20T09:18:05;97069.44;;;5.49;76.61
41334;BME280;27078;46.428;6.256;2023-12-20T09:20:31;97064.25;;;5.53;76.15
41334;BME280;27078;46.428;6.256;2023-12-20T09:22:56;97064.03;;;5.59;75.27
41334;BME280;27078;46.428;6.256;2023-12-20T09:25:21;97056.13;;;5.68;75.06
41334;BME280;27078;46.428;6.256;2023-12-20T09:27:48;97060.06;;;5.77;76.26
41334;BME280;27078;46.428;6.256;2023-12-20T09:30:13;97065.38;;;5.89;75.25
41334;BME280;27078;46.428;6.256;2023-12-20T09:32:39;97060.78;;;5.95;73.78
41334;BME280;27078;46.428;6.256;2023-12-20T09:35:05;97062.03;;;5.87;73.04
41334;BME280;27078;46.428;6.256;2023-12-20T09:37:31;97062.31;;;5.85;73.70
41334;BME280;27078;46.428;6.256;2023-12-20T09:39:57;97058.47;;;5.86;74.08
41334;BME280;27078;46.428;6.256;2023-12-20T09:45:26;97063.19;;;5.91;74.10
41334;BME280;27078;46.428;6.256;2023-12-20T09:47:53;97070.06;;;5.88;73.29
41334;BME280;27078;46.428;6.256;2023-12-20T09:50:20;97060.69;;;5.89;73.77
41334;BME280;27078;46.428;6.256;2023-12-20T09:52:50;97067.59;;;5.92;74.66
41334;BME280;27078;46.428;6.256;2023-12-20T09:55:17;97059.09;;;5.94;75.88
41334;BME280;27078;46.428;6.256;2023-12-20T09:57:43;97065.66;;;5.87;75.00
41334;BME280;27078;46.428;6.256;2023-12-20T10:00:09;97071.47;;;5.91;73.87
41334;BME280;27078;46.428;6.256;2023-12-20T10:02:37;97062.22;;;6.07;75.34
41334;BME280;27078;46.428;6.256;2023-12-20T10:05:06;97062.31;;;6.23;74.51
41334;BME280;27078;46.428;6.256;2023-12-20T10:07:34;97056.34;;;6.36;75.62
41334;BME280;27078;46.428;6.256;2023-12-20T10:10:00;97062.09;;;6.29;72.81
41334;BME280;27078;46.428;6.256;2023-12-20T10:12:27;97061.81;;;6.31;72.98
41334;BME280;27078;46.428;6.256;2023-12-20T10:14:52;97055.50;;;6.35;72.73
41334;BME280;27078;46.428;6.256;2023-12-20T10:17:18;97050.28;;;6.39;72.12
41334;BME280;27078;46.428;6.256;2023-12-20T10:19:43;97055.31;;;6.52;73.14
41334;BME280;27078;46.428;6.256;2023-12-20T10:22:10;97055.56;;;6.51;72.32
41334;BME280;27078;46.428;6.256;2023-12-20T10:24:35;97045.97;;;6.58;71.41
41334;BME280;27078;46.428;6.256;2023-12-20T10:27:02;97040.47;;;6.58;71.81
41334;BME280;27078;46.428;6.256;2023-12-20T10:29:31;97033.84;;;6.59;71.87
41334;BME280;27078;46.428;6.256;2023-12-20T10:31:57;97033.03;;;6.64;71.43
41334;BME280;27078;46.428;6.256;2023-12-20T10:34:23;97031.09;;;6.65;71.39
41334;BME280;27078;46.428;6.256;2023-12-20T10:36:49;97025.59;;;6.75;70.95
41334;BME280;27078;46.428;6.256;2023-12-20T10:39:15;97016.22;;;6.71;70.40
41334;BME280;27078;46.428;6.256;2023-12-20T10:41:41;97005.19;;;6.66;70.99
41334;BME280;27078;46.428;6.256;2023-12-20T10:44:08;97005.72;;;6.68;70.66
41334;BME280;27078;46.428;6.256;2023-12-20T10:46:36;97007.13;;;6.70;70.49
41334;BME280;27078;46.428;6.256;2023-12-20T10:49:05;97005.78;;;6.83;72.36
41334;BME280;27078;46.428;6.256;2023-12-20T10:51:31;97013.25;;;6.98;72.00
41334;BME280;27078;46.428;6.256;2023-12-20T10:53:56;97000.31;;;7.14;71.51
41334;BME280;27078;46.428;6.256;2023-12-20T10:56:22;97006.66;;;7.14;70.35
41334;BME280;27078;46.428;6.256;2023-12-20T10:58:51;97005.03;;;7.23;69.76
41334;BME280;27078;46.428;6.256;2023-12-20T11:01:18;97002.00;;;7.35;69.86
41334;BME280;27078;46.428;6.256;2023-12-20T11:03:48;96995.94;;;7.43;69.54
41334;BME280;27078;46.428;6.256;2023-12-20T11:09:14;96990.94;;;7.76;69.19
41334;BME280;27078;46.428;6.256;2023-12-20T11:14:31;96992.56;;;8.08;67.80
41334;BME280;27078;46.428;6.256;2023-12-20T11:17:09;96981.75;;;8.21;67.32
41334;BME280;27078;46.428;6.256;2023-12-20T11:19:38;96992.47;;;8.33;68.14
41334;BME280;27078;46.428;6.256;2023-12-20T11:22:08;96977.00;;;8.42;67.94
41334;BME280;27078;46.428;6.256;2023-12-20T11:24:34;96968.91;;;8.56;67.73
41334;BME280;27078;46.428;6.256;2023-12-20T11:27:03;96972.69;;;8.75;67.27
41334;BME280;27078;46.428;6.256;2023-12-20T11:29:34;96954.69;;;8.73;67.33
41334;BME280;27078;46.428;6.256;2023-12-20T11:32:03;96970.75;;;8.76;66.73
41334;BME280;27078;46.428;6.256;2023-12-20T11:34:33;96976.03;;;8.72;67.50
41334;BME280;27078;46.428;6.256;2023-12-20T11:37:02;96973.00;;;8.64;68.17
41334;BME280;27078;46.428;6.256;2023-12-20T11:39:28;96977.22;;;8.56;68.28
41334;BME280;27078;46.428;6.256;2023-12-20T11:41:56;96979.72;;;8.52;67.67
41334;BME280;27078;46.428;6.256;2023-12-20T11:44:22;96971.47;;;8.32;62.02
41334;BME280;27078;46.428;6.256;2023-12-20T11:46:48;96977.03;;;8.27;66.62
41334;BME280;27078;46.428;6.256;2023-12-20T11:49:13;96982.06;;;7.99;61.58
41334;BME280;27078;46.428;6.256;2023-12-20T11:51:41;96969.41;;;7.68;54.95
41334;BME280;27078;46.428;6.256;2023-12-20T11:54:07;96963.06;;;7.52;53.15
41334;BME280;27078;46.428;6.256;2023-12-20T11:56:35;96968.88;;;7.40;52.82
41334;BME280;27078;46.428;6.256;2023-12-20T11:59:00;96965.84;;;7.26;52.06
41334;BME280;27078;46.428;6.256;2023-12-20T12:01:26;96982.69;;;7.30;51.50
41334;BME280;27078;46.428;6.256;2023-12-20T12:04:05;96966.66;;;7.27;50.68
41334;BME280;27078;46.428;6.256;2023-12-20T12:06:31;96988.75;;;7.27;50.76
41334;BME280;27078;46.428;6.256;2023-12-20T12:08:56;96961.69;;;7.24;50.62
41334;BME280;27078;46.428;6.256;2023-12-20T12:11:22;96964.16;;;7.25;50.27
41334;BME280;27078;46.428;6.256;2023-12-20T12:13:48;96950.66;;;7.29;51.60
41334;BME280;27078;46.428;6.256;2023-12-20T12:16:17;96962.22;;;7.31;51.60
41334;BME280;27078;46.428;6.256;2023-12-20T12:18:44;96960.28;;;7.31;51.83
41334;BME280;27078;46.428;6.256;2023-12-20T12:21:09;96957.28;;;7.33;50.03
41334;BME280;27078;46.428;6.256;2023-12-20T12:23:35;96953.97;;;7.36;51.12
41334;BME280;27078;46.428;6.256;2023-12-20T12:26:03;96950.38;;;7.41;48.69
41334;BME280;27078;46.428;6.256;2023-12-20T12:28:29;96950.38;;;7.41;48.82
41334;BME280;27078;46.428;6.256;2023-12-20T12:30:58;96953.41;;;7.44;48.64
41334;BME280;27078;46.428;6.256;2023-12-20T12:33:25;96958.94;;;7.49;48.85
41334;BME280;27078;46.428;6.256;2023-12-20T12:35:51;96966.09;;;7.50;48.34
41334;BME280;27078;46.428;6.256;2023-12-20T12:38:16;96950.63;;;7.54;49.19
41334;BME280;27078;46.428;6.256;2023-12-20T12:40:43;96948.97;;;7.64;48.62
41334;BME280;27078;46.428;6.256;2023-12-20T12:43:08;96958.06;;;7.69;47.75
41334;BME280;27078;46.428;6.256;2023-12-20T12:45:34;96955.03;;;7.55;47.35
41334;BME280;27078;46.428;6.256;2023-12-20T12:47:59;96966.09;;;7.50;47.31
41334;BME280;27078;46.428;6.256;2023-12-20T12:50:24;96956.16;;;7.49;47.33
41334;BME280;27078;46.428;6.256;2023-12-20T12:52:50;96955.03;;;7.55;47.86
41334;BME280;27078;46.428;6.256;2023-12-20T12:55:15;96967.19;;;7.54;47.12
41334;BME280;27078;46.428;6.256;2023-12-20T12:57:40;96952.28;;;7.55;46.83
41334;BME280;27078;46.428;6.256;2023-12-20T13:00:06;96963.06;;;7.57;46.66
41334;BME280;27078;46.428;6.256;2023-12-20T13:02:34;96964.44;;;7.60;46.73
41334;BME280;27078;46.428;6.256;2023-12-20T13:04:59;96958.94;;;7.49;45.97
41334;BME280;27078;46.428;6.256;2023-12-20T13:07:26;96966.09;;;7.50;47.43
41334;BME280;27078;46.428;6.256;2023-12-20T13:09:51;96963.34;;;7.50;47.57
41334;BME280;27078;46.428;6.256;2023-12-20T13:12:17;96981.28;;;7.48;47.78